createdAt,value
2023-08-10T00:01:33.552Z,9.73
2023-08-10T00:04:00.568Z,10.27
2023-08-10T00:06:27.388Z,7.83
2023-08-10T00:08:54.412Z,9.80
2023-08-10T00:11:22.152Z,9.80
2023-08-10T00:13:48.970Z,9.93
2023-08-10T00:16:15.819Z,9.33
2023-08-10T00:18:42.612Z,10.90
2023-08-10T00:21:09.541Z,13.37
2023-08-10T00:23:36.312Z,7.63
2023-08-10T00:26:03.316Z,12.07
2023-08-10T00:28:30.077Z,13.23
2023-08-10T00:30:56.860Z,11.97
2023-08-10T00:33:33.661Z,8.53
2023-08-10T00:36:08.234Z,10.43
2023-08-10T00:38:36.247Z,9.03
2023-08-10T00:41:03.565Z,11.40
2023-08-10T00:43:30.656Z,9.87
2023-08-10T00:45:58.608Z,8.87
2023-08-10T00:48:26.674Z,10.97
2023-08-10T00:50:55.147Z,9.73
2023-08-10T00:53:22.945Z,9.17
2023-08-10T00:55:52.664Z,8.93
2023-08-10T00:58:20.547Z,9.57
2023-08-10T01:00:48.676Z,10.53
2023-08-10T01:03:16.817Z,10.73
2023-08-10T01:05:51.382Z,9.57
2023-08-10T01:08:32.224Z,10.33
2023-08-10T01:11:22.724Z,9.47
2023-08-10T01:14:11.738Z,10.40
2023-08-10T01:16:42.873Z,8.50
2023-08-10T01:19:24.360Z,9.50
2023-08-10T01:22:21.499Z,11.93
2023-08-10T01:25:04.402Z,9.20
2023-08-10T01:27:32.365Z,9.70
2023-08-10T01:30:01.457Z,10.47
2023-08-10T01:32:30.777Z,10.97
2023-08-10T01:35:02.198Z,10.40
2023-08-10T01:37:31.362Z,9.73
2023-08-10T01:39:58.172Z,13.63
2023-08-10T01:42:26.113Z,12.23
2023-08-10T01:44:53.391Z,10.67
2023-08-10T01:47:33.168Z,11.57
2023-08-10T01:50:04.141Z,10.37
2023-08-10T01:52:48.284Z,12.03
2023-08-10T01:55:15.380Z,11.60
2023-08-10T01:57:42.420Z,11.60
2023-08-10T02:00:10.410Z,14.40
2023-08-10T02:02:37.510Z,11.27
2023-08-10T02:05:05.549Z,14.10
2023-08-10T02:07:32.432Z,11.27
2023-08-10T02:10:00.399Z,12.87
2023-08-10T02:12:28.190Z,15.63
2023-08-10T02:14:59.550Z,14.30
2023-08-10T02:17:29.917Z,10.87
2023-08-10T02:19:57.793Z,10.30
2023-08-10T02:22:24.859Z,13.23
2023-08-10T02:24:51.686Z,13.17
2023-08-10T02:27:19.181Z,11.23
2023-08-10T02:29:46.361Z,14.97
2023-08-10T02:32:17.637Z,12.63
2023-08-10T02:34:44.869Z,12.33
2023-08-10T02:37:11.762Z,14.47
2023-08-10T02:39:38.546Z,12.43
2023-08-10T02:42:05.679Z,11.53
2023-08-10T02:44:32.712Z,12.60
2023-08-10T02:47:00.606Z,10.73
2023-08-10T02:49:27.780Z,13.87
2023-08-10T02:51:54.940Z,12.17
2023-08-10T02:54:22.062Z,10.40
2023-08-10T02:56:49.262Z,11.33
2023-08-10T02:59:16.273Z,11.50
2023-08-10T03:01:46.666Z,12.23
2023-08-10T03:04:13.872Z,13.27
2023-08-10T03:06:41.032Z,14.53
2023-08-10T03:09:08.113Z,14.67
2023-08-10T03:11:35.414Z,13.60
2023-08-10T03:14:02.317Z,13.40
2023-08-10T03:16:31.131Z,17.07
2023-08-10T03:18:58.411Z,12.77
2023-08-10T03:21:25.340Z,12.80
2023-08-10T03:23:53.261Z,12.73
2023-08-10T03:26:20.358Z,12.77
2023-08-10T03:28:47.642Z,11.87
2023-08-10T03:31:15.069Z,12.77
2023-08-10T03:33:42.110Z,11.97
2023-08-10T03:36:09.061Z,11.63
2023-08-10T03:38:35.983Z,12.83
2023-08-10T03:41:02.844Z,13.17
2023-08-10T03:43:29.629Z,12.50
2023-08-10T03:45:56.458Z,11.73
2023-08-10T03:48:23.533Z,13.90
2023-08-10T03:50:50.848Z,13.57
2023-08-10T03:53:17.939Z,13.93
2023-08-10T03:55:44.791Z,14.10
2023-08-10T03:58:11.689Z,16.90
2023-08-10T04:00:38.505Z,17.50
2023-08-10T04:03:05.779Z,15.30
2023-08-10T04:05:32.790Z,14.57
2023-08-10T04:07:59.539Z,15.77
2023-08-10T04:10:26.543Z,13.10
2023-08-10T04:12:53.569Z,13.50
2023-08-10T04:15:20.446Z,14.73
2023-08-10T04:17:47.390Z,14.53
2023-08-10T04:20:15.441Z,15.80
2023-08-10T04:22:42.580Z,13.27
2023-08-10T04:25:09.734Z,16.27
2023-08-10T04:27:37.133Z,16.00
2023-08-10T04:30:05.377Z,20.73
2023-08-10T04:32:32.440Z,20.13
2023-08-10T04:34:59.494Z,15.27
2023-08-10T04:37:26.348Z,16.13
2023-08-10T04:39:53.199Z,17.43
2023-08-10T04:42:19.982Z,15.90
2023-08-10T04:44:46.923Z,17.17
2023-08-10T04:47:14.131Z,20.57
2023-08-10T04:49:41.252Z,21.53
2023-08-10T04:52:08.342Z,20.97
2023-08-10T04:54:35.138Z,24.50
2023-08-10T04:57:02.030Z,18.77
2023-08-10T04:59:28.843Z,17.67
2023-08-10T05:01:55.769Z,17.27
2023-08-10T05:04:22.840Z,18.20
2023-08-10T05:06:49.656Z,18.00
2023-08-10T05:09:16.809Z,21.73
2023-08-10T05:11:43.662Z,15.53
2023-08-10T05:14:10.450Z,18.53
2023-08-10T05:16:38.414Z,21.90
2023-08-10T05:19:05.817Z,16.30
2023-08-10T05:21:33.808Z,16.13
2023-08-10T05:24:00.694Z,17.93
2023-08-10T05:26:28.811Z,16.70
2023-08-10T05:28:55.925Z,17.47
2023-08-10T05:31:23.144Z,17.37
2023-08-10T05:33:50.276Z,16.27
2023-08-10T05:36:17.410Z,16.40
2023-08-10T05:38:44.520Z,18.90
2023-08-10T05:41:11.320Z,17.87
2023-08-10T05:43:38.099Z,12.80
2023-08-10T05:46:04.985Z,17.17
2023-08-10T05:48:31.846Z,14.77
2023-08-10T05:50:58.692Z,14.05
2023-08-10T05:53:25.476Z,15.13
2023-08-10T05:55:52.300Z,14.80
2023-08-10T05:58:19.139Z,14.60
2023-08-10T06:00:46.115Z,12.83
2023-08-10T06:03:13.024Z,16.13
2023-08-10T06:05:40.321Z,12.70
2023-08-10T06:08:08.476Z,13.95
2023-08-10T06:10:35.514Z,15.35
2023-08-10T06:13:03.289Z,17.00
2023-08-10T06:15:30.958Z,13.07
2023-08-10T06:17:58.380Z,12.10
2023-08-10T06:20:28.001Z,13.45
2023-08-10T06:22:55.556Z,12.63
2023-08-10T06:25:22.403Z,11.20
2023-08-10T06:27:50.823Z,10.77
2023-08-10T06:30:18.023Z,11.25
2023-08-10T06:32:44.909Z,11.90
2023-08-10T06:35:11.759Z,17.33
2023-08-10T06:37:38.911Z,14.15
2023-08-10T06:40:09.716Z,9.95
2023-08-10T06:42:39.633Z,10.73
2023-08-10T06:45:07.079Z,12.45
2023-08-10T06:47:34.422Z,16.65
2023-08-10T06:50:01.323Z,16.50
2023-08-10T06:52:28.183Z,11.82
2023-08-10T06:54:54.995Z,11.02
2023-08-10T06:57:22.446Z,11.85
2023-08-10T07:02:19.464Z,12.48
2023-08-10T07:04:47.081Z,9.75
2023-08-10T07:07:15.426Z,9.25
2023-08-10T07:09:43.458Z,8.73
2023-08-10T07:12:10.938Z,11.63
2023-08-10T07:14:38.088Z,11.35
2023-08-10T07:17:05.282Z,7.43
2023-08-10T07:19:32.361Z,6.07
2023-08-10T07:21:59.109Z,10.45
2023-08-10T07:24:26.638Z,7.90
2023-08-10T07:26:53.659Z,11.30
2023-08-10T07:29:20.431Z,5.10
2023-08-10T07:31:48.056Z,8.45
2023-08-10T07:34:14.861Z,6.75
2023-08-10T07:36:41.896Z,6.28
2023-08-10T07:39:08.739Z,8.85
2023-08-10T07:41:35.890Z,8.80
2023-08-10T07:44:02.710Z,4.50
2023-08-10T07:46:31.638Z,4.75
2023-08-10T07:48:58.464Z,9.32
2023-08-10T07:51:25.234Z,4.82
2023-08-10T07:53:52.046Z,5.70
2023-08-10T07:56:19.025Z,4.15
2023-08-10T07:58:45.781Z,4.47
2023-08-10T08:01:12.555Z,5.57
2023-08-10T08:03:39.461Z,8.48
2023-08-10T08:06:06.361Z,5.20
2023-08-10T08:08:33.153Z,4.70
2023-08-10T08:10:59.908Z,5.28
2023-08-10T08:13:27.060Z,4.10
2023-08-10T08:15:53.823Z,3.35
2023-08-10T08:18:49.738Z,3.50
2023-08-10T08:21:21.793Z,10.32
2023-08-10T08:23:49.490Z,4.05
2023-08-10T08:26:17.140Z,4.28
2023-08-10T08:28:45.229Z,6.15
2023-08-10T08:31:12.637Z,6.32
2023-08-10T08:33:42.568Z,6.47
2023-08-10T08:36:10.045Z,7.05
2023-08-10T08:38:38.593Z,2.88
2023-08-10T08:41:08.258Z,5.32
2023-08-10T08:43:36.037Z,4.55
2023-08-10T08:46:04.502Z,3.47
2023-08-10T08:48:32.028Z,2.88
2023-08-10T08:50:58.953Z,4.75
2023-08-10T08:53:26.507Z,2.38
2023-08-10T08:55:53.636Z,5.70
2023-08-10T08:58:20.564Z,6.18
2023-08-10T09:00:50.176Z,3.67
2023-08-10T09:03:25.933Z,6.25
2023-08-10T09:05:53.047Z,3.17
2023-08-10T09:08:21.192Z,5.20
2023-08-10T09:10:49.148Z,6.82
2023-08-10T09:13:18.634Z,4.13
2023-08-10T09:15:46.021Z,3.35
2023-08-10T09:18:12.921Z,2.20
2023-08-10T09:20:40.007Z,3.42
2023-08-10T09:23:06.984Z,2.25
2023-08-10T09:25:42.214Z,3.00
2023-08-10T09:28:12.368Z,2.75
2023-08-10T09:30:39.570Z,3.05
2023-08-10T09:33:06.754Z,4.22
2023-08-10T09:35:33.757Z,2.17
2023-08-10T09:38:05.186Z,4.25
2023-08-10T09:40:32.058Z,3.38
2023-08-10T09:42:58.887Z,3.10
2023-08-10T09:45:25.787Z,1.90
2023-08-10T09:47:52.600Z,5.28
2023-08-10T09:50:19.641Z,4.28
2023-08-10T09:52:47.507Z,4.47
2023-08-10T09:55:16.055Z,2.60
2023-08-10T09:57:46.288Z,4.97
2023-08-10T10:00:23.990Z,6.50
2023-08-10T10:02:51.775Z,3.15
2023-08-10T10:05:36.106Z,3.25
2023-08-10T10:08:05.501Z,4.88
2023-08-10T10:10:36.546Z,3.58
2023-08-10T10:13:06.493Z,4.45
2023-08-10T10:15:34.981Z,2.03
2023-08-10T10:18:02.092Z,2.95
2023-08-10T10:20:29.271Z,3.63
2023-08-10T10:22:56.337Z,5.60
2023-08-10T10:25:23.141Z,3.40
2023-08-10T10:27:53.302Z,3.00
2023-08-10T10:30:24.398Z,3.58
2023-08-10T10:32:52.183Z,3.60
2023-08-10T10:35:35.779Z,2.67
2023-08-10T10:38:05.048Z,2.47
2023-08-10T10:40:31.814Z,3.40
2023-08-10T10:43:04.474Z,2.42
2023-08-10T10:45:44.778Z,4.30
2023-08-10T10:48:15.049Z,3.13
2023-08-10T10:50:42.319Z,4.20
2023-08-10T10:53:12.673Z,2.10
2023-08-10T10:55:47.180Z,2.83
2023-08-10T10:58:15.614Z,2.50
2023-08-10T11:00:49.235Z,3.47
2023-08-10T11:03:19.637Z,1.77
2023-08-10T11:05:46.413Z,1.52
2023-08-10T11:08:15.920Z,3.25
2023-08-10T11:10:44.935Z,3.33
2023-08-10T11:13:12.257Z,4.13
2023-08-10T11:15:39.169Z,4.70
2023-08-10T11:18:13.551Z,2.08
2023-08-10T11:20:49.795Z,1.98
2023-08-10T11:23:16.810Z,3.65
2023-08-10T11:25:51.813Z,3.40
2023-08-10T11:28:21.912Z,3.35
2023-08-10T11:30:50.162Z,3.10
2023-08-10T11:35:53.232Z,3.25
2023-08-10T11:38:23.584Z,4.03
2023-08-10T11:40:51.206Z,3.78
2023-08-10T11:43:21.746Z,1.67
2023-08-10T11:45:49.544Z,5.50
2023-08-10T11:48:18.820Z,2.13
2023-08-10T11:50:46.788Z,2.35
2023-08-10T11:53:16.491Z,3.00
2023-08-10T11:55:45.814Z,2.42
2023-08-10T11:58:16.797Z,1.70
2023-08-10T12:00:48.449Z,2.90
2023-08-10T12:03:24.548Z,5.07
2023-08-10T12:05:54.298Z,2.95
2023-08-10T12:08:28.684Z,2.22
2023-08-10T12:11:07.139Z,2.40
2023-08-10T12:13:50.697Z,2.03
2023-08-10T12:16:20.096Z,3.60
2023-08-10T12:18:48.071Z,3.03
2023-08-10T12:21:15.119Z,1.50
2023-08-10T12:23:43.481Z,2.00
2023-08-10T12:26:12.844Z,3.00
2023-08-10T12:28:39.735Z,4.22
2023-08-10T12:31:07.241Z,3.67
2023-08-10T12:33:40.344Z,2.78
2023-08-10T12:36:07.922Z,3.25
2023-08-10T12:38:34.677Z,2.40
2023-08-10T12:41:02.085Z,3.00
2023-08-10T12:43:28.893Z,2.55
2023-08-10T12:45:55.774Z,3.85
2023-08-10T12:48:22.639Z,3.33
2023-08-10T12:50:50.143Z,3.65
2023-08-10T12:53:17.087Z,2.58
2023-08-10T12:55:43.839Z,2.55
2023-08-10T12:58:15.274Z,4.38
2023-08-10T13:00:42.285Z,4.90
2023-08-10T13:03:09.627Z,3.05
2023-08-10T13:05:36.648Z,2.20
2023-08-10T13:08:03.588Z,4.53
2023-08-10T13:10:30.461Z,3.70
2023-08-10T13:12:57.345Z,2.33
2023-08-10T13:15:24.241Z,1.75
2023-08-10T13:17:51.561Z,2.40
2023-08-10T13:20:18.476Z,3.33
2023-08-10T13:22:45.644Z,2.95
2023-08-10T13:25:12.548Z,2.38
2023-08-10T13:27:39.450Z,1.92
2023-08-10T13:30:06.986Z,4.40
2023-08-10T13:32:33.833Z,4.90
2023-08-10T13:35:00.793Z,3.75
2023-08-10T13:37:27.658Z,1.92
2023-08-10T13:39:54.412Z,1.60
2023-08-10T13:42:21.205Z,2.88
2023-08-10T13:44:47.993Z,3.38
2023-08-10T13:47:14.805Z,5.57
2023-08-10T13:49:54.499Z,5.03
2023-08-10T13:52:24.030Z,2.22
2023-08-10T13:54:51.167Z,3.70
2023-08-10T13:57:19.543Z,4.03
2023-08-10T13:59:47.480Z,9.88
2023-08-10T14:02:14.638Z,13.57
2023-08-10T14:04:41.480Z,4.60
2023-08-10T14:07:08.576Z,3.22
2023-08-10T14:09:35.401Z,20.42
2023-08-10T14:12:02.559Z,15.25
2023-08-10T14:14:30.781Z,6.20
2023-08-10T14:16:57.852Z,4.40
2023-08-10T14:19:24.764Z,2.10
2023-08-10T14:21:52.105Z,3.97
2023-08-10T14:24:19.249Z,2.35
2023-08-10T14:26:46.216Z,3.38
2023-08-10T14:29:13.053Z,3.50
2023-08-10T14:31:40.703Z,3.63
2023-08-10T14:34:07.665Z,3.13
2023-08-10T14:36:34.682Z,4.20
2023-08-10T14:39:01.549Z,3.20
2023-08-10T14:41:28.364Z,2.97
2023-08-10T14:43:55.686Z,3.50
2023-08-10T14:46:23.398Z,3.53
2023-08-10T14:48:51.938Z,2.25
2023-08-10T14:51:18.736Z,3.50
2023-08-10T14:53:45.549Z,2.60
2023-08-10T14:56:12.371Z,3.42
2023-08-10T14:58:39.163Z,3.38
2023-08-10T15:01:06.129Z,4.50
2023-08-10T15:03:32.963Z,3.55
2023-08-10T15:06:05.189Z,3.13
2023-08-10T15:08:32.123Z,6.70
2023-08-10T15:11:06.871Z,1.73
2023-08-10T15:13:35.328Z,4.32
2023-08-10T15:16:03.140Z,3.45
2023-08-10T15:18:30.209Z,5.43
2023-08-10T15:20:57.135Z,3.42
2023-08-10T15:23:41.140Z,2.03
2023-08-10T15:26:09.755Z,2.78
2023-08-10T15:28:39.805Z,5.18
2023-08-10T15:31:10.999Z,2.42
2023-08-10T15:33:39.188Z,2.50
2023-08-10T15:36:07.710Z,5.95
2023-08-10T15:38:34.580Z,2.13
2023-08-10T15:41:04.768Z,1.35
2023-08-10T15:43:31.718Z,3.55
2023-08-10T15:45:58.636Z,2.47
2023-08-10T15:48:25.426Z,3.65
2023-08-10T15:50:52.412Z,2.88
2023-08-10T15:55:50.104Z,3.15
2023-08-10T15:58:17.805Z,3.33
2023-08-10T16:00:45.131Z,2.95
2023-08-10T16:03:11.939Z,3.72
2023-08-10T16:05:40.057Z,2.40
2023-08-10T16:08:07.253Z,4.70
2023-08-10T16:10:34.342Z,2.67
2023-08-10T16:13:01.205Z,4.63
2023-08-10T16:15:28.018Z,13.60
2023-08-10T16:17:54.868Z,4.20
2023-08-10T16:20:21.869Z,2.83
2023-08-10T16:22:48.950Z,2.05
2023-08-10T16:25:16.766Z,2.00
2023-08-10T16:27:43.728Z,4.65
2023-08-10T16:30:10.955Z,6.00
2023-08-10T16:32:38.365Z,3.35
2023-08-10T16:35:06.022Z,2.70
2023-08-10T16:37:32.963Z,4.60
2023-08-10T16:39:59.735Z,3.30
2023-08-10T16:42:26.568Z,4.10
2023-08-10T16:44:53.369Z,3.58
2023-08-10T16:47:20.139Z,2.75
2023-08-10T16:49:46.928Z,2.53
2023-08-10T16:52:13.985Z,2.97
2023-08-10T16:54:41.650Z,3.78
2023-08-10T16:57:08.390Z,2.88
2023-08-10T16:59:35.128Z,4.10
2023-08-10T17:02:02.228Z,5.47
2023-08-10T17:04:29.118Z,6.35
2023-08-10T17:06:55.873Z,5.75
2023-08-10T17:09:23.005Z,5.38
2023-08-10T17:11:49.790Z,4.07
2023-08-10T17:14:16.545Z,4.78
2023-08-10T17:16:43.634Z,4.45
2023-08-10T17:19:10.428Z,4.50
2023-08-10T17:21:37.289Z,4.10
2023-08-10T17:24:04.425Z,3.03
2023-08-10T17:26:31.778Z,3.00
2023-08-10T17:29:06.216Z,2.75
2023-08-10T17:31:41.395Z,5.22
2023-08-10T17:34:08.584Z,2.80
2023-08-10T17:36:35.446Z,5.65
2023-08-10T17:39:02.287Z,3.55
2023-08-10T17:41:29.094Z,4.68
2023-08-10T17:43:55.873Z,5.90
2023-08-10T17:46:27.056Z,5.38
2023-08-10T17:48:54.611Z,4.53
2023-08-10T17:51:21.477Z,8.63
2023-08-10T17:53:48.321Z,2.25
2023-08-10T17:56:15.072Z,4.22
2023-08-10T17:58:42.470Z,4.10
2023-08-10T18:01:12.972Z,4.53
2023-08-10T18:03:41.971Z,5.30
2023-08-10T18:06:08.998Z,5.38
2023-08-10T18:08:36.430Z,7.93
2023-08-10T18:11:03.825Z,4.28
2023-08-10T18:13:30.666Z,3.88
2023-08-10T18:15:57.825Z,4.85
2023-08-10T18:18:25.001Z,4.70
2023-08-10T18:20:52.189Z,4.25
2023-08-10T18:23:19.713Z,5.07
2023-08-10T18:25:46.539Z,4.40
2023-08-10T18:28:13.340Z,7.32
2023-08-10T18:30:40.512Z,7.43
2023-08-10T18:33:07.687Z,5.25
2023-08-10T18:35:34.582Z,8.15
2023-08-10T18:38:01.771Z,6.22
2023-08-10T18:40:41.740Z,7.38
2023-08-10T18:43:09.248Z,8.43
2023-08-10T18:45:36.795Z,4.38
2023-08-10T18:48:05.128Z,5.43
2023-08-10T18:50:32.444Z,10.35
2023-08-10T18:52:59.721Z,6.13
2023-08-10T18:55:27.004Z,7.38
2023-08-10T18:57:54.992Z,6.88
2023-08-10T19:00:22.418Z,8.95
2023-08-10T19:02:50.076Z,5.88
2023-08-10T19:05:17.350Z,7.35
2023-08-10T19:07:47.707Z,6.40
2023-08-10T19:10:15.260Z,9.55
2023-08-10T19:12:42.016Z,6.78
2023-08-10T19:15:09.519Z,11.10
2023-08-10T19:17:36.778Z,6.35
2023-08-10T19:20:03.787Z,7.45
2023-08-10T19:22:30.999Z,8.48
2023-08-10T19:24:58.171Z,9.15
2023-08-10T19:27:25.153Z,5.25
2023-08-10T19:29:52.321Z,8.57
2023-08-10T19:32:19.468Z,8.65
2023-08-10T19:34:46.987Z,11.80
2023-08-10T19:37:13.966Z,6.35
2023-08-10T19:39:40.719Z,6.50
2023-08-10T19:42:08.497Z,8.48
2023-08-10T19:44:35.924Z,7.10
2023-08-10T19:47:03.105Z,9.13
2023-08-10T19:49:30.257Z,9.43
2023-08-10T19:51:58.152Z,10.25
2023-08-10T19:54:25.362Z,11.18
2023-08-10T19:56:52.790Z,10.27
2023-08-10T19:59:19.882Z,12.10
2023-08-10T20:01:47.165Z,7.75
2023-08-10T20:04:14.189Z,11.50
2023-08-10T20:06:41.534Z,9.20
2023-08-10T20:09:10.776Z,5.68
2023-08-10T20:11:40.176Z,9.25
2023-08-10T20:14:07.035Z,8.95
2023-08-10T20:16:33.898Z,7.70
2023-08-10T20:19:01.354Z,9.65
2023-08-10T20:21:28.399Z,10.63
2023-08-10T20:23:55.763Z,9.48
2023-08-10T20:26:23.222Z,9.85
2023-08-10T20:28:50.353Z,12.27
2023-08-10T20:31:18.098Z,8.40
2023-08-10T20:33:45.789Z,10.73
2023-08-10T20:36:12.681Z,10.32
2023-08-10T20:38:39.880Z,6.40
2023-08-10T20:41:06.901Z,9.70
2023-08-10T20:43:34.203Z,6.18
2023-08-10T20:46:18.331Z,9.48
2023-08-10T20:48:45.265Z,9.13
2023-08-10T20:51:13.501Z,7.50
2023-08-10T20:53:41.097Z,10.50
2023-08-10T20:56:09.695Z,7.90
2023-08-10T20:58:37.715Z,8.82
2023-08-10T21:01:06.853Z,7.60
2023-08-10T21:03:38.534Z,8.23
2023-08-10T21:06:05.960Z,9.18
2023-08-10T21:08:33.907Z,10.70
2023-08-10T21:11:00.917Z,10.50
2023-08-10T21:13:28.899Z,11.57
2023-08-10T21:15:56.058Z,10.38
2023-08-10T21:18:23.520Z,9.32
2023-08-10T21:20:51.727Z,10.10
2023-08-10T21:23:23.032Z,11.05
2023-08-10T21:25:51.398Z,10.32
2023-08-10T21:28:19.638Z,11.63
2023-08-10T21:30:46.890Z,11.02
2023-08-10T21:33:14.431Z,11.20
2023-08-10T21:35:41.890Z,9.88
2023-08-10T21:38:09.649Z,7.90
2023-08-10T21:40:37.196Z,7.30
2023-08-10T21:43:04.639Z,8.65
2023-08-10T21:45:32.050Z,6.47
2023-08-10T21:47:59.519Z,7.55
2023-08-10T21:50:27.419Z,7.18
2023-08-10T21:52:54.295Z,10.38
2023-08-10T21:55:21.779Z,6.47
2023-08-10T21:57:48.971Z,6.72
2023-08-10T22:00:18.475Z,7.68
2023-08-10T22:02:45.929Z,8.45
2023-08-10T22:05:13.180Z,6.35
2023-08-10T22:07:40.323Z,8.45
2023-08-10T22:10:07.587Z,5.85
2023-08-10T22:12:36.959Z,8.90
2023-08-10T22:15:04.408Z,6.20
2023-08-10T22:17:31.339Z,10.70
2023-08-10T22:19:58.582Z,7.30
2023-08-10T22:22:25.649Z,9.70
2023-08-10T22:24:52.876Z,6.05
2023-08-10T22:27:19.926Z,5.18
2023-08-10T22:29:47.258Z,5.97
2023-08-10T22:32:14.486Z,6.47
2023-08-10T22:34:41.840Z,6.90
2023-08-10T22:37:09.109Z,9.10
2023-08-10T22:39:36.112Z,9.27
2023-08-10T22:42:03.305Z,8.05
2023-08-10T22:44:30.528Z,7.95
2023-08-10T22:46:58.237Z,6.55
2023-08-10T22:49:26.101Z,8.05
2023-08-10T22:51:54.273Z,7.63
2023-08-10T22:54:21.809Z,8.63
2023-08-10T22:56:49.603Z,9.25
2023-08-10T22:59:16.647Z,7.72
2023-08-10T23:01:44.263Z,8.52
2023-08-10T23:04:12.650Z,11.30
2023-08-10T23:06:40.933Z,7.47
2023-08-10T23:09:11.716Z,7.60
2023-08-10T23:11:39.273Z,7.90
2023-08-10T23:14:06.614Z,7.68
2023-08-10T23:16:34.864Z,9.88
2023-08-10T23:19:02.902Z,7.53
2023-08-10T23:21:30.280Z,7.35
2023-08-10T23:23:58.255Z,8.23
2023-08-10T23:26:25.113Z,13.10
2023-08-10T23:28:52.371Z,6.47
2023-08-10T23:31:20.342Z,5.05
2023-08-10T23:33:47.622Z,9.55
2023-08-10T23:36:16.018Z,9.15
2023-08-10T23:38:43.597Z,7.68
2023-08-10T23:41:11.030Z,10.68
2023-08-10T23:43:38.293Z,7.35
2023-08-10T23:46:06.806Z,6.47
2023-08-10T23:48:35.505Z,7.40
2023-08-10T23:51:02.755Z,8.95
2023-08-10T23:53:30.197Z,7.57
2023-08-10T23:55:58.798Z,7.68
2023-08-10T23:58:37.529Z,6.97
